Weather reports worldwide

Advertisment
Wick Airport, United Kingdom (2003075): temperature & dewpoint: 13.01.2019 09:00:00 - 19.01.2019 09:00:00 (GMT)Wick Airport, United Kingdom (2003075): wind speed: 13.01.2019 09:00:00 - 19.01.2019 09:00:00 (GMT)Wick Airport, United Kingdom (2003075): wind direction: 13.01.2019 09:00:00 - 19.01.2019 09:00:00 (GMT)Wick Airport, United Kingdom (2003075): visibility: 13.01.2019 09:00:00 - 19.01.2019 09:00:00 (GMT)
Date & Time tt [°C] td [°C] ff [km/h] ff [kn] dd vv [km]
19.01.2019 09:00:00 5,0 2,0 13 7 SSE 10
19.01.2019 08:00:00 5,0 2,0 15 8 SSE 10
19.01.2019 07:00:00 5,0 2,0 15 8 SSE 10
19.01.2019 06:00:00 5,0 2,0 16 9 SSE 10
19.01.2019 05:00:00 4,0 1,0 15 8 SSE 10
19.01.2019 04:00:00 4,0 1,0 18 10 S 10
19.01.2019 03:00:00 4,0 2,0 21 11 S 10
19.01.2019 02:00:00 4,0 2,0 21 11 S 10
19.01.2019 01:00:00 5,0 2,0 29 16 S 10
19.01.2019 00:00:00 5,0 2,0 26 14 S 10
18.01.2019 23:00:00 5,0 1,0 22 12 S 10
18.01.2019 22:00:00 4,0 1,0 24 13 S 10
18.01.2019 21:00:00 4,0 0,0 22 12 S 10
18.01.2019 20:00:00 4,0 -1,0 26 14 S 10
18.01.2019 19:00:00 4,0 0,0 24 13 S 10
18.01.2019 18:00:00 4,0 -1,0 28 15 S 10
18.01.2019 17:00:00 4,0 -1,0 26 14 S 10
18.01.2019 16:00:00 4,0 -1,0 26 14 S 10
18.01.2019 15:00:00 4,0 -1,0 24 13 S 10
18.01.2019 14:00:00 4,0 0,0 24 13 S 10
18.01.2019 13:00:00 4,0 -1,0 22 12 S 10
18.01.2019 12:00:00 4,0 -2,0 28 15 S 10
18.01.2019 11:00:00 4,0 -2,0 16 9 S 10
18.01.2019 10:00:00 3,0 -2,0 13 7 S 10
18.01.2019 09:00:00 3,0 -2,0 9 5 S 10
18.01.2019 08:00:00 3,0 -2,0 13 7 S 10
18.01.2019 07:00:00 3,0 -1,0 11 6 S 10
18.01.2019 06:00:00 3,0 -1,0 13 7 S 10
18.01.2019 05:00:00 1,0 -1,0 5 3 SSW 10
18.01.2019 04:00:00 1,0 -1,0 5 3 S 10
18.01.2019 03:00:00 0,0 -2,0 4 2 SW 10
18.01.2019 02:00:00 1,0 -3,0 4 2 W 10
18.01.2019 01:00:00 0,0 -2,0 8 4 W 10
18.01.2019 00:00:00 0,0 -2,0 9 5 W 10
17.01.2019 23:00:00 0,0 -1,0 5 3 WSW 10
17.01.2019 22:00:00 1,0 0,0 9 5 WSW 10
17.01.2019 21:00:00 0,0 -1,0 8 4 W 10
17.01.2019 20:00:00 0,0 -1,0 8 4 W 10
17.01.2019 19:00:00 0,0 0,0 11 6 WSW 10
17.01.2019 18:00:00 0,0 -1,0 15 8 WNW 10
17.01.2019 17:00:00 0,0 -1,0 9 5 W 10
17.01.2019 16:00:00 1,0 -1,0 13 7 WNW 10
17.01.2019 15:00:00 3,0 0,0 13 7 N 10
17.01.2019 14:00:00 3,0 0,0 13 7 NW 10
17.01.2019 13:00:00 4,0 0,0 18 10 NNW 10
17.01.2019 12:00:00 4,0 -1,0 22 12 N 10
17.01.2019 11:00:00 3,0 0,0 21 11 N 10
17.01.2019 10:00:00 4,0 -1,0 29 16 N 10
17.01.2019 09:00:00 3,0 0,0 26 14 N 10
17.01.2019 08:00:00 1,0 0,0 26 14 NNW 10
17.01.2019 07:00:00 3,0 -1,0 37 20 N 10
17.01.2019 06:00:00 1,0 -1,0 39 21 N 10
17.01.2019 05:00:00 2,0 0,0 55 30 NNE 10
17.01.2019 04:00:00 3,0 -2,0 44 24 N 10
17.01.2019 03:00:00 3,0 -2,0 37 20 N 10
17.01.2019 02:00:00 2,0 -2,0 41 22 NNW 10
17.01.2019 01:00:00 3,0 -3,0 39 21 N 10
17.01.2019 00:00:00 1,0 -1,0 37 20 N 10
16.01.2019 23:00:00 1,0 -2,0 31 17 NNW 10
16.01.2019 22:00:00 1,0 -2,0 41 22 N 4,3
16.01.2019 21:00:00 1,0 -3,0 41 22 N 10
16.01.2019 20:00:00 2,0 0,0 37 20 N 9
16.01.2019 19:00:00 2,0 0,0 35 19 N 10
16.01.2019 18:00:00 - - - - - -
16.01.2019 17:00:00 3,0 2,0 44 24 NNE 7
16.01.2019 16:00:00 4,0 3,0 15 8 NW 10
16.01.2019 15:00:00 5,0 3,0 15 8 N 10
16.01.2019 14:00:00 5,0 4,0 9 5 NW 10
16.01.2019 13:00:00 5,0 4,0 5 3 - 10
16.01.2019 12:00:00 4,0 3,0 8 4 WNW 10
16.01.2019 11:00:00 4,0 3,0 8 4 W 10
16.01.2019 10:00:00 4,0 3,0 4 2 W 10
16.01.2019 09:00:00 4,0 3,0 8 4 W 10
16.01.2019 08:00:00 4,0 3,0 9 5 W 10
16.01.2019 07:00:00 5,0 3,0 13 7 NW 10
16.01.2019 06:00:00 5,0 3,0 21 11 NW 10
16.01.2019 05:00:00 5,0 3,0 31 17 NW 10
16.01.2019 04:00:00 6,0 3,0 31 17 W 10
16.01.2019 03:00:00 6,0 4,0 28 15 W 10
16.01.2019 02:00:00 6,0 4,0 26 14 W 10
16.01.2019 01:00:00 7,0 4,0 21 11 W 10
16.01.2019 00:00:00 9,0 6,0 22 12 W 10
15.01.2019 23:00:00 8,0 7,0 18 10 SW 10
15.01.2019 22:00:00 8,0 7,0 22 12 SW 10
15.01.2019 21:00:00 8,0 6,0 18 10 SSW 10
15.01.2019 20:00:00 8,0 6,0 15 8 SW 10
15.01.2019 19:00:00 8,0 6,0 22 12 WSW 10
15.01.2019 18:00:00 8,0 6,0 15 8 SSW 10
15.01.2019 17:00:00 7,0 6,0 16 9 SSW 10
15.01.2019 16:00:00 6,0 6,0 9 5 SSE 4,0
15.01.2019 15:00:00 6,0 6,0 9 5 S 9
15.01.2019 14:00:00 6,0 5,0 4 2 W 9
15.01.2019 13:00:00 6,0 5,0 11 6 W 9
15.01.2019 12:00:00 6,0 5,0 15 8 W 9
15.01.2019 11:00:00 6,0 5,0 13 7 W 9
15.01.2019 10:00:00 7,0 5,0 15 8 W 10
15.01.2019 09:00:00 7,0 4,0 22 12 W 10
15.01.2019 08:00:00 6,0 5,0 26 14 W 10
15.01.2019 07:00:00 7,0 4,0 24 13 WNW 10
15.01.2019 06:00:00 7,0 4,0 16 9 W 10
15.01.2019 05:00:00 7,0 5,0 39 21 WNW 10
15.01.2019 04:00:00 9,0 7,0 42 23 WNW 10
15.01.2019 03:00:00 10,0 8,0 24 13 W 10
15.01.2019 02:00:00 9,0 7,0 22 12 W 10
15.01.2019 01:00:00 8,0 7,0 26 14 WSW 10
15.01.2019 00:00:00 7,0 6,0 16 9 WSW 10
14.01.2019 23:00:00 6,0 5,0 15 8 SW 10
14.01.2019 22:00:00 6,0 4,0 18 10 SW 10
14.01.2019 21:00:00 6,0 4,0 11 6 SW 10
14.01.2019 20:00:00 5,0 3,0 9 5 SW 10
14.01.2019 19:00:00 5,0 2,0 9 5 SW 10
14.01.2019 18:00:00 4,0 2,0 9 5 WSW 10
14.01.2019 17:00:00 4,0 2,0 11 6 WSW 10
14.01.2019 16:00:00 4,0 2,0 15 8 W 10
14.01.2019 15:00:00 4,0 2,0 15 8 W 10
14.01.2019 14:00:00 3,0 1,0 22 12 W 10
14.01.2019 13:00:00 4,0 0,0 21 11 WSW 10
14.01.2019 12:00:00 3,0 -1,0 13 7 SW 10
14.01.2019 11:00:00 2,0 -1,0 15 8 WSW 10
14.01.2019 10:00:00 1,0 -2,0 8 4 WSW 10
14.01.2019 09:00:00 0,0 -2,0 11 6 WSW 10
14.01.2019 08:00:00 0,0 -1,0 9 5 W 10
14.01.2019 07:00:00 1,0 -2,0 8 4 W 10
14.01.2019 06:00:00 0,0 -3,0 11 6 NNW 10
14.01.2019 05:00:00 1,0 -2,0 16 9 NNW 10
14.01.2019 04:00:00 1,0 0,0 13 7 NW 10
14.01.2019 03:00:00 1,0 0,0 26 14 NNW 10
14.01.2019 02:00:00 2,0 -1,0 24 13 NNW 10
14.01.2019 01:00:00 1,0 0,0 13 7 NW 10
14.01.2019 00:00:00 1,0 -1,0 9 5 NW 10
13.01.2019 23:00:00 2,0 0,0 15 8 NNW 10
13.01.2019 22:00:00 2,0 0,0 29 16 NNE 10
13.01.2019 21:00:00 3,0 1,0 29 16 NE 10
13.01.2019 20:00:00 3,0 1,0 29 16 NE 10
13.01.2019 19:00:00 4,0 2,0 29 16 NE 10
13.01.2019 18:00:00 4,0 3,0 35 19 NE 5
13.01.2019 17:00:00 5,0 4,0 15 8 NNW 10
13.01.2019 16:00:00 6,0 4,0 39 21 NW 10
13.01.2019 15:00:00 6,0 4,0 39 21 NW 10
13.01.2019 14:00:00 - - - - - -
13.01.2019 13:00:00 - - - - - -
13.01.2019 12:00:00 - - - - - -
13.01.2019 11:00:00 - - - - - -
13.01.2019 10:00:00 - - - - - -
13.01.2019 09:00:00 - - - - - -

tt = temperature
td = dewpoint
ff = wind speed
dd = wind direction
vv = visibility

Next stations